sensor_id;sensor_type;location;lat;lon;timestamp;P1;durP1;ratioP1;P2;durP2;ratioP2
58896;SDS011;44677;52.378;10.400;2024-01-27T00:01:13;11.40;;;2.90;;
58896;SDS011;44677;52.378;10.400;2024-01-27T00:03:38;12.20;;;2.80;;
58896;SDS011;44677;52.378;10.400;2024-01-27T00:06:03;13.60;;;3.60;;
58896;SDS011;44677;52.378;10.400;2024-01-27T00:08:29;10.50;;;2.20;;
58896;SDS011;44677;52.378;10.400;2024-01-27T00:10:54;17.20;;;3.10;;
58896;SDS011;44677;52.378;10.400;2024-01-27T00:13:20;10.30;;;2.20;;
58896;SDS011;44677;52.378;10.400;2024-01-27T00:15:45;14.80;;;2.40;;
58896;SDS011;44677;52.378;10.400;2024-01-27T00:18:11;11.10;;;2.40;;
58896;SDS011;44677;52.378;10.400;2024-01-27T00:20:36;15.40;;;2.90;;
58896;SDS011;44677;52.378;10.400;2024-01-27T00:23:02;14.60;;;2.80;;
58896;SDS011;44677;52.378;10.400;2024-01-27T00:25:28;7.80;;;2.10;;
58896;SDS011;44677;52.378;10.400;2024-01-27T00:27:53;10.50;;;2.50;;
58896;SDS011;44677;52.378;10.400;2024-01-27T00:30:19;18.20;;;2.70;;
58896;SDS011;44677;52.378;10.400;2024-01-27T00:32:44;14.40;;;2.40;;
58896;SDS011;44677;52.378;10.400;2024-01-27T00:35:10;15.20;;;2.90;;
58896;SDS011;44677;52.378;10.400;2024-01-27T00:37:39;11.20;;;2.60;;
58896;SDS011;44677;52.378;10.400;2024-01-27T00:40:09;13.90;;;2.70;;
58896;SDS011;44677;52.378;10.400;2024-01-27T00:42:35;12.90;;;2.80;;
58896;SDS011;44677;52.378;10.400;2024-01-27T00:45:01;11.50;;;2.40;;
58896;SDS011;44677;52.378;10.400;2024-01-27T00:47:26;9.70;;;2.30;;
58896;SDS011;44677;52.378;10.400;2024-01-27T00:49:52;11.90;;;2.10;;
58896;SDS011;44677;52.378;10.400;2024-01-27T00:52:19;18.20;;;2.50;;
58896;SDS011;44677;52.378;10.400;2024-01-27T00:54:44;12.80;;;2.60;;
58896;SDS011;44677;52.378;10.400;2024-01-27T00:57:10;9.70;;;2.40;;
58896;SDS011;44677;52.378;10.400;2024-01-27T00:59:35;11.20;;;2.00;;
58896;SDS011;44677;52.378;10.400;2024-01-27T01:02:00;16.90;;;2.90;;
58896;SDS011;44677;52.378;10.400;2024-01-27T01:04:26;12.50;;;3.10;;
58896;SDS011;44677;52.378;10.400;2024-01-27T01:06:51;13.60;;;2.70;;
58896;SDS011;44677;52.378;10.400;2024-01-27T01:09:17;17.80;;;2.30;;
58896;SDS011;44677;52.378;10.400;2024-01-27T01:11:42;12.70;;;2.60;;
58896;SDS011;44677;52.378;10.400;2024-01-27T01:14:07;13.80;;;2.90;;
58896;SDS011;44677;52.378;10.400;2024-01-27T01:16:33;9.40;;;3.00;;
58896;SDS011;44677;52.378;10.400;2024-01-27T01:18:58;21.30;;;4.10;;
58896;SDS011;44677;52.378;10.400;2024-01-27T01:21:24;13.30;;;2.80;;
58896;SDS011;44677;52.378;10.400;2024-01-27T01:23:50;17.40;;;3.00;;
58896;SDS011;44677;52.378;10.400;2024-01-27T01:26:15;17.40;;;3.00;;
58896;SDS011;44677;52.378;10.400;2024-01-27T01:28:40;12.60;;;3.10;;
58896;SDS011;44677;52.378;10.400;2024-01-27T01:31:06;15.60;;;2.80;;
58896;SDS011;44677;52.378;10.400;2024-01-27T01:33:33;17.90;;;3.00;;
58896;SDS011;44677;52.378;10.400;2024-01-27T01:35:58;12.10;;;2.70;;
58896;SDS011;44677;52.378;10.400;2024-01-27T01:38:23;8.70;;;2.00;;
58896;SDS011;44677;52.378;10.400;2024-01-27T01:40:49;12.80;;;2.40;;
58896;SDS011;44677;52.378;10.400;2024-01-27T01:43:14;12.00;;;2.30;;
58896;SDS011;44677;52.378;10.400;2024-01-27T01:45:40;15.20;;;3.00;;
58896;SDS011;44677;52.378;10.400;2024-01-27T01:48:05;15.30;;;3.70;;
58896;SDS011;44677;52.378;10.400;2024-01-27T01:50:31;12.10;;;2.40;;
58896;SDS011;44677;52.378;10.400;2024-01-27T01:52:57;16.10;;;2.60;;
58896;SDS011;44677;52.378;10.400;2024-01-27T01:55:23;9.10;;;3.10;;
58896;SDS011;44677;52.378;10.400;2024-01-27T01:57:48;12.60;;;2.60;;
58896;SDS011;44677;52.378;10.400;2024-01-27T02:00:14;13.30;;;2.90;;
58896;SDS011;44677;52.378;10.400;2024-01-27T02:02:42;11.50;;;3.00;;
58896;SDS011;44677;52.378;10.400;2024-01-27T02:05:09;16.20;;;3.60;;
58896;SDS011;44677;52.378;10.400;2024-01-27T02:07:35;15.90;;;3.30;;
58896;SDS011;44677;52.378;10.400;2024-01-27T02:10:01;13.70;;;2.60;;
58896;SDS011;44677;52.378;10.400;2024-01-27T02:12:27;17.10;;;3.40;;
58896;SDS011;44677;52.378;10.400;2024-01-27T02:14:52;15.70;;;3.10;;
58896;SDS011;44677;52.378;10.400;2024-01-27T02:17:18;15.90;;;3.10;;
58896;SDS011;44677;52.378;10.400;2024-01-27T02:19:43;16.30;;;3.30;;
58896;SDS011;44677;52.378;10.400;2024-01-27T02:22:09;21.20;;;3.60;;
58896;SDS011;44677;52.378;10.400;2024-01-27T02:24:34;17.40;;;2.70;;
58896;SDS011;44677;52.378;10.400;2024-01-27T02:27:00;13.30;;;2.80;;
58896;SDS011;44677;52.378;10.400;2024-01-27T02:29:25;15.00;;;2.80;;
58896;SDS011;44677;52.378;10.400;2024-01-27T02:31:52;15.10;;;2.90;;
58896;SDS011;44677;52.378;10.400;2024-01-27T02:34:18;22.80;;;2.90;;
58896;SDS011;44677;52.378;10.400;2024-01-27T02:36:43;15.60;;;3.00;;
58896;SDS011;44677;52.378;10.400;2024-01-27T02:39:09;14.60;;;3.00;;
58896;SDS011;44677;52.378;10.400;2024-01-27T02:41:35;8.10;;;2.70;;
58896;SDS011;44677;52.378;10.400;2024-01-27T02:44:04;16.30;;;3.20;;
58896;SDS011;44677;52.378;10.400;2024-01-27T02:46:32;14.80;;;2.70;;
58896;SDS011;44677;52.378;10.400;2024-01-27T02:48:57;9.90;;;3.10;;
58896;SDS011;44677;52.378;10.400;2024-01-27T02:51:23;17.40;;;3.20;;
58896;SDS011;44677;52.378;10.400;2024-01-27T02:53:48;17.10;;;3.80;;
58896;SDS011;44677;52.378;10.400;2024-01-27T02:56:15;14.40;;;3.30;;
58896;SDS011;44677;52.378;10.400;2024-01-27T02:58:41;14.80;;;3.10;;
58896;SDS011;44677;52.378;10.400;2024-01-27T03:01:07;13.50;;;3.50;;
58896;SDS011;44677;52.378;10.400;2024-01-27T03:03:33;12.60;;;2.80;;
58896;SDS011;44677;52.378;10.400;2024-01-27T03:05:58;19.30;;;2.80;;
58896;SDS011;44677;52.378;10.400;2024-01-27T03:08:24;18.70;;;3.40;;
58896;SDS011;44677;52.378;10.400;2024-01-27T03:10:49;14.40;;;3.40;;
58896;SDS011;44677;52.378;10.400;2024-01-27T03:13:15;18.00;;;3.40;;
58896;SDS011;44677;52.378;10.400;2024-01-27T03:15:40;16.50;;;3.90;;
58896;SDS011;44677;52.378;10.400;2024-01-27T03:18:08;15.90;;;3.30;;
58896;SDS011;44677;52.378;10.400;2024-01-27T03:20:33;13.90;;;2.70;;
58896;SDS011;44677;52.378;10.400;2024-01-27T03:22:59;12.00;;;3.00;;
58896;SDS011;44677;52.378;10.400;2024-01-27T03:25:24;14.20;;;3.30;;
58896;SDS011;44677;52.378;10.400;2024-01-27T03:27:51;18.70;;;2.90;;
58896;SDS011;44677;52.378;10.400;2024-01-27T03:30:17;22.20;;;3.30;;
58896;SDS011;44677;52.378;10.400;2024-01-27T03:32:42;13.90;;;2.50;;
58896;SDS011;44677;52.378;10.400;2024-01-27T03:35:07;17.80;;;3.10;;
58896;SDS011;44677;52.378;10.400;2024-01-27T03:37:33;22.30;;;3.80;;
58896;SDS011;44677;52.378;10.400;2024-01-27T03:39:59;21.60;;;3.80;;
58896;SDS011;44677;52.378;10.400;2024-01-27T03:42:25;14.70;;;3.10;;
58896;SDS011;44677;52.378;10.400;2024-01-27T03:44:51;18.40;;;3.00;;
58896;SDS011;44677;52.378;10.400;2024-01-27T03:47:17;17.30;;;3.20;;
58896;SDS011;44677;52.378;10.400;2024-01-27T03:49:42;13.40;;;3.60;;
58896;SDS011;44677;52.378;10.400;2024-01-27T03:52:08;12.30;;;3.30;;
58896;SDS011;44677;52.378;10.400;2024-01-27T03:54:33;17.40;;;3.50;;
58896;SDS011;44677;52.378;10.400;2024-01-27T03:56:58;16.80;;;3.30;;
58896;SDS011;44677;52.378;10.400;2024-01-27T03:59:24;21.70;;;4.30;;
58896;SDS011;44677;52.378;10.400;2024-01-27T04:01:49;20.30;;;3.80;;
58896;SDS011;44677;52.378;10.400;2024-01-27T04:04:15;20.90;;;2.80;;
58896;SDS011;44677;52.378;10.400;2024-01-27T04:06:40;18.50;;;3.40;;
58896;SDS011;44677;52.378;10.400;2024-01-27T04:09:06;16.40;;;4.00;;
58896;SDS011;44677;52.378;10.400;2024-01-27T04:11:35;15.40;;;3.40;;
58896;SDS011;44677;52.378;10.400;2024-01-27T04:14:01;19.40;;;2.70;;
58896;SDS011;44677;52.378;10.400;2024-01-27T04:16:28;10.70;;;3.70;;
58896;SDS011;44677;52.378;10.400;2024-01-27T04:18:53;17.30;;;3.50;;
58896;SDS011;44677;52.378;10.400;2024-01-27T04:21:19;11.20;;;3.40;;
58896;SDS011;44677;52.378;10.400;2024-01-27T04:23:44;17.90;;;3.40;;
58896;SDS011;44677;52.378;10.400;2024-01-27T04:26:09;11.20;;;3.10;;
58896;SDS011;44677;52.378;10.400;2024-01-27T04:28:35;15.30;;;3.60;;
58896;SDS011;44677;52.378;10.400;2024-01-27T04:31:01;14.90;;;3.60;;
58896;SDS011;44677;52.378;10.400;2024-01-27T04:33:26;18.80;;;4.00;;
58896;SDS011;44677;52.378;10.400;2024-01-27T04:35:52;10.10;;;2.60;;
58896;SDS011;44677;52.378;10.400;2024-01-27T04:38:17;12.70;;;3.10;;
58896;SDS011;44677;52.378;10.400;2024-01-27T04:40:43;15.10;;;3.90;;
58896;SDS011;44677;52.378;10.400;2024-01-27T04:43:08;10.40;;;2.90;;
58896;SDS011;44677;52.378;10.400;2024-01-27T04:45:33;12.30;;;3.20;;
58896;SDS011;44677;52.378;10.400;2024-01-27T04:47:59;17.20;;;3.30;;
58896;SDS011;44677;52.378;10.400;2024-01-27T04:50:26;17.30;;;4.10;;
58896;SDS011;44677;52.378;10.400;2024-01-27T04:52:52;11.40;;;3.40;;
58896;SDS011;44677;52.378;10.400;2024-01-27T04:55:17;20.50;;;3.30;;
58896;SDS011;44677;52.378;10.400;2024-01-27T04:57:43;14.50;;;2.80;;
58896;SDS011;44677;52.378;10.400;2024-01-27T05:00:08;18.30;;;3.40;;
58896;SDS011;44677;52.378;10.400;2024-01-27T05:02:40;12.50;;;3.50;;
58896;SDS011;44677;52.378;10.400;2024-01-27T05:05:06;15.90;;;3.50;;
58896;SDS011;44677;52.378;10.400;2024-01-27T05:07:32;18.70;;;4.20;;
58896;SDS011;44677;52.378;10.400;2024-01-27T05:09:58;16.50;;;4.00;;
58896;SDS011;44677;52.378;10.400;2024-01-27T05:12:23;14.00;;;3.70;;
58896;SDS011;44677;52.378;10.400;2024-01-27T05:14:49;16.70;;;3.30;;
58896;SDS011;44677;52.378;10.400;2024-01-27T05:17:14;14.70;;;3.60;;
58896;SDS011;44677;52.378;10.400;2024-01-27T05:19:40;17.00;;;3.60;;
58896;SDS011;44677;52.378;10.400;2024-01-27T05:22:05;15.50;;;3.40;;
58896;SDS011;44677;52.378;10.400;2024-01-27T05:24:30;9.10;;;2.50;;
58896;SDS011;44677;52.378;10.400;2024-01-27T05:26:56;17.10;;;3.60;;
58896;SDS011;44677;52.378;10.400;2024-01-27T05:29:21;14.80;;;3.10;;
58896;SDS011;44677;52.378;10.400;2024-01-27T05:31:47;13.70;;;3.20;;
58896;SDS011;44677;52.378;10.400;2024-01-27T05:34:13;13.50;;;3.50;;
58896;SDS011;44677;52.378;10.400;2024-01-27T05:36:38;17.40;;;3.20;;
58896;SDS011;44677;52.378;10.400;2024-01-27T05:39:03;12.10;;;3.10;;
58896;SDS011;44677;52.378;10.400;2024-01-27T05:41:30;17.80;;;3.70;;
58896;SDS011;44677;52.378;10.400;2024-01-27T05:43:55;21.00;;;3.70;;
58896;SDS011;44677;52.378;10.400;2024-01-27T05:46:24;15.50;;;2.90;;
58896;SDS011;44677;52.378;10.400;2024-01-27T05:48:49;13.70;;;3.00;;
58896;SDS011;44677;52.378;10.400;2024-01-27T05:51:18;11.00;;;2.80;;
58896;SDS011;44677;52.378;10.400;2024-01-27T05:53:48;14.10;;;3.30;;
58896;SDS011;44677;52.378;10.400;2024-01-27T05:56:14;17.00;;;3.40;;
58896;SDS011;44677;52.378;10.400;2024-01-27T05:58:39;13.20;;;3.20;;
58896;SDS011;44677;52.378;10.400;2024-01-27T06:01:05;13.20;;;2.90;;
58896;SDS011;44677;52.378;10.400;2024-01-27T06:03:30;15.30;;;3.90;;
58896;SDS011;44677;52.378;10.400;2024-01-27T06:05:56;14.60;;;3.00;;
58896;SDS011;44677;52.378;10.400;2024-01-27T06:08:21;16.20;;;3.50;;
58896;SDS011;44677;52.378;10.400;2024-01-27T06:10:47;19.30;;;3.90;;
58896;SDS011;44677;52.378;10.400;2024-01-27T06:13:12;14.10;;;3.00;;
58896;SDS011;44677;52.378;10.400;2024-01-27T06:15:38;13.40;;;2.90;;
58896;SDS011;44677;52.378;10.400;2024-01-27T06:18:04;11.20;;;3.00;;
58896;SDS011;44677;52.378;10.400;2024-01-27T06:20:29;11.30;;;3.50;;
58896;SDS011;44677;52.378;10.400;2024-01-27T06:22:55;12.20;;;3.30;;
58896;SDS011;44677;52.378;10.400;2024-01-27T06:25:20;10.90;;;3.20;;
58896;SDS011;44677;52.378;10.400;2024-01-27T06:27:46;11.00;;;3.20;;
58896;SDS011;44677;52.378;10.400;2024-01-27T06:30:12;8.10;;;3.00;;
58896;SDS011;44677;52.378;10.400;2024-01-27T06:32:38;9.70;;;2.80;;
58896;SDS011;44677;52.378;10.400;2024-01-27T06:35:03;7.90;;;2.40;;
58896;SDS011;44677;52.378;10.400;2024-01-27T06:37:31;16.80;;;3.30;;
58896;SDS011;44677;52.378;10.400;2024-01-27T06:39:56;9.70;;;2.70;;
58896;SDS011;44677;52.378;10.400;2024-01-27T06:42:22;17.30;;;2.90;;
58896;SDS011;44677;52.378;10.400;2024-01-27T06:44:47;9.50;;;2.40;;
58896;SDS011;44677;52.378;10.400;2024-01-27T06:47:13;12.40;;;2.90;;
58896;SDS011;44677;52.378;10.400;2024-01-27T06:49:39;13.90;;;3.40;;
58896;SDS011;44677;52.378;10.400;2024-01-27T06:52:04;15.60;;;3.50;;
58896;SDS011;44677;52.378;10.400;2024-01-27T06:54:29;12.00;;;3.30;;
58896;SDS011;44677;52.378;10.400;2024-01-27T06:56:55;14.30;;;3.60;;
58896;SDS011;44677;52.378;10.400;2024-01-27T06:59:20;17.30;;;3.60;;
58896;SDS011;44677;52.378;10.400;2024-01-27T07:01:46;9.60;;;3.40;;
58896;SDS011;44677;52.378;10.400;2024-01-27T07:04:13;20.60;;;4.00;;
58896;SDS011;44677;52.378;10.400;2024-01-27T07:06:39;17.00;;;3.60;;
58896;SDS011;44677;52.378;10.400;2024-01-27T07:09:04;18.40;;;3.60;;
58896;SDS011;44677;52.378;10.400;2024-01-27T07:11:31;15.70;;;3.50;;
58896;SDS011;44677;52.378;10.400;2024-01-27T07:13:57;12.30;;;4.00;;
58896;SDS011;44677;52.378;10.400;2024-01-27T07:16:23;10.00;;;3.40;;
58896;SDS011;44677;52.378;10.400;2024-01-27T07:18:49;10.50;;;3.80;;
58896;SDS011;44677;52.378;10.400;2024-01-27T07:21:16;14.70;;;3.70;;
58896;SDS011;44677;52.378;10.400;2024-01-27T07:23:42;13.40;;;3.40;;
58896;SDS011;44677;52.378;10.400;2024-01-27T07:26:09;15.90;;;3.20;;
58896;SDS011;44677;52.378;10.400;2024-01-27T07:28:35;10.80;;;3.30;;
58896;SDS011;44677;52.378;10.400;2024-01-27T07:31:00;17.30;;;3.20;;
58896;SDS011;44677;52.378;10.400;2024-01-27T07:33:26;10.30;;;3.20;;
58896;SDS011;44677;52.378;10.400;2024-01-27T07:35:51;13.00;;;3.90;;
58896;SDS011;44677;52.378;10.400;2024-01-27T07:38:16;10.70;;;3.70;;
58896;SDS011;44677;52.378;10.400;2024-01-27T07:40:42;11.60;;;3.10;;
58896;SDS011;44677;52.378;10.400;2024-01-27T07:43:07;18.90;;;8.60;;
58896;SDS011;44677;52.378;10.400;2024-01-27T07:45:32;15.10;;;5.10;;
58896;SDS011;44677;52.378;10.400;2024-01-27T07:47:58;7.90;;;3.60;;
58896;SDS011;44677;52.378;10.400;2024-01-27T07:50:24;16.80;;;4.40;;
58896;SDS011;44677;52.378;10.400;2024-01-27T07:52:49;12.50;;;4.10;;
58896;SDS011;44677;52.378;10.400;2024-01-27T07:55:14;15.80;;;4.10;;
58896;SDS011;44677;52.378;10.400;2024-01-27T07:57:42;16.30;;;3.50;;
58896;SDS011;44677;52.378;10.400;2024-01-27T08:00:08;14.30;;;3.50;;
58896;SDS011;44677;52.378;10.400;2024-01-27T08:02:33;15.00;;;3.70;;
58896;SDS011;44677;52.378;10.400;2024-01-27T08:04:59;16.20;;;3.30;;
58896;SDS011;44677;52.378;10.400;2024-01-27T08:07:25;15.40;;;4.00;;
58896;SDS011;44677;52.378;10.400;2024-01-27T08:09:50;8.20;;;3.80;;
58896;SDS011;44677;52.378;10.400;2024-01-27T08:12:15;15.30;;;3.80;;
58896;SDS011;44677;52.378;10.400;2024-01-27T08:14:41;15.50;;;4.50;;
58896;SDS011;44677;52.378;10.400;2024-01-27T08:17:06;13.00;;;3.50;;
58896;SDS011;44677;52.378;10.400;2024-01-27T08:19:32;17.80;;;4.00;;
58896;SDS011;44677;52.378;10.400;2024-01-27T08:21:57;15.70;;;4.30;;
58896;SDS011;44677;52.378;10.400;2024-01-27T08:24:23;13.20;;;3.60;;
58896;SDS011;44677;52.378;10.400;2024-01-27T08:26:49;10.70;;;3.90;;
58896;SDS011;44677;52.378;10.400;2024-01-27T08:29:15;18.40;;;4.10;;
58896;SDS011;44677;52.378;10.400;2024-01-27T08:31:40;10.80;;;3.80;;
58896;SDS011;44677;52.378;10.400;2024-01-27T08:34:06;12.40;;;4.50;;
58896;SDS011;44677;52.378;10.400;2024-01-27T08:36:31;17.10;;;5.20;;
58896;SDS011;44677;52.378;10.400;2024-01-27T08:38:59;12.30;;;4.20;;
58896;SDS011;44677;52.378;10.400;2024-01-27T08:41:24;12.10;;;4.10;;
58896;SDS011;44677;52.378;10.400;2024-01-27T08:43:50;15.90;;;4.70;;
58896;SDS011;44677;52.378;10.400;2024-01-27T08:46:15;15.40;;;4.20;;
58896;SDS011;44677;52.378;10.400;2024-01-27T08:48:43;8.70;;;3.90;;
58896;SDS011;44677;52.378;10.400;2024-01-27T08:51:11;10.30;;;3.50;;
58896;SDS011;44677;52.378;10.400;2024-01-27T08:53:38;14.50;;;4.40;;
58896;SDS011;44677;52.378;10.400;2024-01-27T08:56:03;16.30;;;4.40;;
58896;SDS011;44677;52.378;10.400;2024-01-27T08:58:30;18.30;;;4.00;;
58896;SDS011;44677;52.378;10.400;2024-01-27T09:00:56;13.50;;;4.10;;
58896;SDS011;44677;52.378;10.400;2024-01-27T09:03:21;16.60;;;3.60;;
58896;SDS011;44677;52.378;10.400;2024-01-27T09:05:47;15.20;;;4.90;;
58896;SDS011;44677;52.378;10.400;2024-01-27T09:08:12;13.80;;;4.00;;
58896;SDS011;44677;52.378;10.400;2024-01-27T09:10:37;13.10;;;3.70;;
58896;SDS011;44677;52.378;10.400;2024-01-27T09:13:03;12.90;;;4.30;;
58896;SDS011;44677;52.378;10.400;2024-01-27T09:15:30;15.80;;;4.00;;
58896;SDS011;44677;52.378;10.400;2024-01-27T09:17:55;11.10;;;3.90;;
58896;SDS011;44677;52.378;10.400;2024-01-27T09:20:21;10.70;;;4.10;;
58896;SDS011;44677;52.378;10.400;2024-01-27T09:22:47;16.00;;;5.00;;
58896;SDS011;44677;52.378;10.400;2024-01-27T09:25:13;15.30;;;4.30;;
58896;SDS011;44677;52.378;10.400;2024-01-27T09:27:38;13.10;;;4.40;;
58896;SDS011;44677;52.378;10.400;2024-01-27T09:30:04;17.00;;;4.10;;
58896;SDS011;44677;52.378;10.400;2024-01-27T09:32:30;18.00;;;4.50;;
58896;SDS011;44677;52.378;10.400;2024-01-27T09:34:56;9.90;;;3.90;;
58896;SDS011;44677;52.378;10.400;2024-01-27T09:37:21;14.50;;;4.00;;
58896;SDS011;44677;52.378;10.400;2024-01-27T09:39:47;11.20;;;4.10;;
58896;SDS011;44677;52.378;10.400;2024-01-27T09:42:13;14.20;;;4.60;;
58896;SDS011;44677;52.378;10.400;2024-01-27T09:44:40;12.90;;;4.70;;
58896;SDS011;44677;52.378;10.400;2024-01-27T09:47:08;13.30;;;4.70;;
58896;SDS011;44677;52.378;10.400;2024-01-27T09:49:34;17.30;;;4.40;;
58896;SDS011;44677;52.378;10.400;2024-01-27T09:51:59;17.90;;;4.80;;
58896;SDS011;44677;52.378;10.400;2024-01-27T09:54:25;15.70;;;4.50;;
58896;SDS011;44677;52.378;10.400;2024-01-27T09:56:50;15.90;;;7.80;;
58896;SDS011;44677;52.378;10.400;2024-01-27T09:59:16;25.30;;;11.80;;
58896;SDS011;44677;52.378;10.400;2024-01-27T10:01:43;14.70;;;4.90;;
58896;SDS011;44677;52.378;10.400;2024-01-27T10:04:09;13.30;;;4.40;;
58896;SDS011;44677;52.378;10.400;2024-01-27T10:06:34;14.00;;;4.70;;
58896;SDS011;44677;52.378;10.400;2024-01-27T10:09:00;13.90;;;4.80;;
58896;SDS011;44677;52.378;10.400;2024-01-27T10:11:25;9.30;;;4.50;;
58896;SDS011;44677;52.378;10.400;2024-01-27T10:13:55;14.00;;;4.70;;
58896;SDS011;44677;52.378;10.400;2024-01-27T10:16:21;14.20;;;4.40;;
58896;SDS011;44677;52.378;10.400;2024-01-27T10:18:46;19.40;;;5.30;;
58896;SDS011;44677;52.378;10.400;2024-01-27T10:21:13;12.40;;;4.10;;
58896;SDS011;44677;52.378;10.400;2024-01-27T10:23:40;12.40;;;4.60;;
58896;SDS011;44677;52.378;10.400;2024-01-27T10:26:08;21.00;;;5.40;;
58896;SDS011;44677;52.378;10.400;2024-01-27T10:28:34;20.50;;;5.70;;
58896;SDS011;44677;52.378;10.400;2024-01-27T10:31:09;11.10;;;5.10;;
58896;SDS011;44677;52.378;10.400;2024-01-27T10:33:35;15.80;;;4.70;;
58896;SDS011;44677;52.378;10.400;2024-01-27T10:36:00;13.90;;;5.60;;
58896;SDS011;44677;52.378;10.400;2024-01-27T10:38:35;14.60;;;5.40;;
58896;SDS011;44677;52.378;10.400;2024-01-27T10:41:02;11.50;;;4.40;;
58896;SDS011;44677;52.378;10.400;2024-01-27T10:43:32;16.10;;;4.90;;
58896;SDS011;44677;52.378;10.400;2024-01-27T10:46:00;17.40;;;5.10;;
58896;SDS011;44677;52.378;10.400;2024-01-27T10:48:25;13.30;;;5.10;;
58896;SDS011;44677;52.378;10.400;2024-01-27T10:50:51;14.40;;;5.20;;
58896;SDS011;44677;52.378;10.400;2024-01-27T10:53:23;18.50;;;5.20;;
58896;SDS011;44677;52.378;10.400;2024-01-27T10:55:50;16.20;;;5.10;;
58896;SDS011;44677;52.378;10.400;2024-01-27T10:58:18;18.50;;;5.60;;
58896;SDS011;44677;52.378;10.400;2024-01-27T11:00:45;16.80;;;5.10;;
58896;SDS011;44677;52.378;10.400;2024-01-27T11:03:10;11.30;;;4.80;;
58896;SDS011;44677;52.378;10.400;2024-01-27T11:05:36;11.40;;;4.70;;
58896;SDS011;44677;52.378;10.400;2024-01-27T11:08:04;15.00;;;5.50;;
58896;SDS011;44677;52.378;10.400;2024-01-27T11:10:31;14.30;;;5.10;;
58896;SDS011;44677;52.378;10.400;2024-01-27T11:13:02;17.00;;;5.60;;
58896;SDS011;44677;52.378;10.400;2024-01-27T11:15:28;13.60;;;5.30;;
58896;SDS011;44677;52.378;10.400;2024-01-27T11:17:56;17.80;;;5.50;;
58896;SDS011;44677;52.378;10.400;2024-01-27T11:20:23;12.40;;;5.10;;
58896;SDS011;44677;52.378;10.400;2024-01-27T11:22:49;15.30;;;5.40;;
58896;SDS011;44677;52.378;10.400;2024-01-27T11:25:17;13.00;;;5.00;;
58896;SDS011;44677;52.378;10.400;2024-01-27T11:27:44;9.60;;;4.70;;
58896;SDS011;44677;52.378;10.400;2024-01-27T11:30:26;14.10;;;5.30;;
58896;SDS011;44677;52.378;10.400;2024-01-27T11:32:54;17.00;;;5.10;;
58896;SDS011;44677;52.378;10.400;2024-01-27T11:35:20;13.10;;;5.20;;
58896;SDS011;44677;52.378;10.400;2024-01-27T11:37:45;11.70;;;5.70;;
58896;SDS011;44677;52.378;10.400;2024-01-27T11:40:13;16.30;;;6.00;;
58896;SDS011;44677;52.378;10.400;2024-01-27T11:42:39;16.70;;;5.90;;
58896;SDS011;44677;52.378;10.400;2024-01-27T11:45:04;13.80;;;5.70;;
58896;SDS011;44677;52.378;10.400;2024-01-27T11:47:30;13.90;;;6.30;;
58896;SDS011;44677;52.378;10.400;2024-01-27T11:49:56;15.40;;;6.10;;
58896;SDS011;44677;52.378;10.400;2024-01-27T11:52:22;13.10;;;6.50;;
58896;SDS011;44677;52.378;10.400;2024-01-27T11:54:55;10.60;;;5.90;;
58896;SDS011;44677;52.378;10.400;2024-01-27T11:57:21;14.80;;;5.90;;
58896;SDS011;44677;52.378;10.400;2024-01-27T11:59:47;15.00;;;5.80;;
58896;SDS011;44677;52.378;10.400;2024-01-27T12:02:12;14.40;;;5.10;;
58896;SDS011;44677;52.378;10.400;2024-01-27T12:04:38;9.50;;;5.20;;
58896;SDS011;44677;52.378;10.400;2024-01-27T12:07:03;15.70;;;5.30;;
58896;SDS011;44677;52.378;10.400;2024-01-27T12:09:29;13.40;;;5.50;;
58896;SDS011;44677;52.378;10.400;2024-01-27T12:11:54;13.00;;;5.30;;
58896;SDS011;44677;52.378;10.400;2024-01-27T12:14:41;14.80;;;5.30;;
58896;SDS011;44677;52.378;10.400;2024-01-27T12:17:09;13.20;;;5.40;;
58896;SDS011;44677;52.378;10.400;2024-01-27T12:19:35;16.50;;;5.20;;
58896;SDS011;44677;52.378;10.400;2024-01-27T12:22:01;16.50;;;5.80;;
58896;SDS011;44677;52.378;10.400;2024-01-27T12:24:27;15.20;;;5.20;;
58896;SDS011;44677;52.378;10.400;2024-01-27T12:26:52;12.10;;;5.00;;
58896;SDS011;44677;52.378;10.400;2024-01-27T12:29:19;17.80;;;6.00;;
58896;SDS011;44677;52.378;10.400;2024-01-27T12:31:45;16.50;;;5.50;;
58896;SDS011;44677;52.378;10.400;2024-01-27T12:34:11;14.70;;;4.90;;
58896;SDS011;44677;52.378;10.400;2024-01-27T12:36:40;13.20;;;5.00;;
58896;SDS011;44677;52.378;10.400;2024-01-27T12:39:06;14.70;;;4.90;;
58896;SDS011;44677;52.378;10.400;2024-01-27T12:41:31;14.70;;;5.40;;
58896;SDS011;44677;52.378;10.400;2024-01-27T12:44:00;16.30;;;5.20;;
58896;SDS011;44677;52.378;10.400;2024-01-27T12:46:25;18.80;;;5.50;;
58896;SDS011;44677;52.378;10.400;2024-01-27T12:48:51;13.80;;;4.90;;
58896;SDS011;44677;52.378;10.400;2024-01-27T12:51:17;12.90;;;4.50;;
58896;SDS011;44677;52.378;10.400;2024-01-27T12:53:42;11.60;;;4.50;;
58896;SDS011;44677;52.378;10.400;2024-01-27T12:58:35;12.70;;;5.30;;
58896;SDS011;44677;52.378;10.400;2024-01-27T13:01:00;16.00;;;5.20;;
58896;SDS011;44677;52.378;10.400;2024-01-27T13:03:26;16.80;;;5.70;;
58896;SDS011;44677;52.378;10.400;2024-01-27T13:05:51;14.60;;;4.90;;
58896;SDS011;44677;52.378;10.400;2024-01-27T13:08:16;12.10;;;4.80;;
58896;SDS011;44677;52.378;10.400;2024-01-27T13:10:42;13.40;;;4.70;;
58896;SDS011;44677;52.378;10.400;2024-01-27T13:13:07;15.00;;;4.50;;
58896;SDS011;44677;52.378;10.400;2024-01-27T13:15:33;14.20;;;4.30;;
58896;SDS011;44677;52.378;10.400;2024-01-27T13:17:58;15.60;;;5.10;;
58896;SDS011;44677;52.378;10.400;2024-01-27T13:20:23;16.20;;;5.00;;
58896;SDS011;44677;52.378;10.400;2024-01-27T13:22:49;15.40;;;5.00;;
58896;SDS011;44677;52.378;10.400;2024-01-27T13:25:14;14.20;;;4.80;;
58896;SDS011;44677;52.378;10.400;2024-01-27T13:27:40;16.80;;;4.80;;
58896;SDS011;44677;52.378;10.400;2024-01-27T13:30:05;12.70;;;4.40;;
58896;SDS011;44677;52.378;10.400;2024-01-27T13:32:31;16.70;;;4.60;;
58896;SDS011;44677;52.378;10.400;2024-01-27T13:34:57;14.20;;;3.70;;
58896;SDS011;44677;52.378;10.400;2024-01-27T13:37:22;12.70;;;4.00;;
58896;SDS011;44677;52.378;10.400;2024-01-27T13:39:48;11.20;;;3.10;;
58896;SDS011;44677;52.378;10.400;2024-01-27T13:42:13;8.80;;;2.90;;
58896;SDS011;44677;52.378;10.400;2024-01-27T13:44:38;14.10;;;3.00;;
58896;SDS011;44677;52.378;10.400;2024-01-27T13:47:04;9.40;;;2.50;;
58896;SDS011;44677;52.378;10.400;2024-01-27T13:49:33;9.90;;;2.80;;
58896;SDS011;44677;52.378;10.400;2024-01-27T13:51:58;9.60;;;2.60;;
58896;SDS011;44677;52.378;10.400;2024-01-27T13:54:23;8.50;;;3.00;;
58896;SDS011;44677;52.378;10.400;2024-01-27T13:56:49;10.70;;;3.00;;
58896;SDS011;44677;52.378;10.400;2024-01-27T13:59:14;9.60;;;3.30;;
58896;SDS011;44677;52.378;10.400;2024-01-27T14:01:40;10.20;;;2.70;;
58896;SDS011;44677;52.378;10.400;2024-01-27T14:04:05;11.70;;;3.50;;
58896;SDS011;44677;52.378;10.400;2024-01-27T14:06:33;8.80;;;2.60;;
58896;SDS011;44677;52.378;10.400;2024-01-27T14:08:59;11.50;;;2.90;;
58896;SDS011;44677;52.378;10.400;2024-01-27T14:11:24;11.60;;;2.80;;
58896;SDS011;44677;52.378;10.400;2024-01-27T14:13:50;9.70;;;2.60;;
58896;SDS011;44677;52.378;10.400;2024-01-27T14:16:15;12.40;;;3.30;;
58896;SDS011;44677;52.378;10.400;2024-01-27T14:18:41;12.00;;;4.10;;